createdAt,value
2022-09-03T00:01:01.613Z,21.00
2022-09-03T00:03:47.937Z,21.00
2022-09-03T00:06:34.041Z,21.10
2022-09-03T00:09:10.747Z,21.10
2022-09-03T00:12:28.345Z,20.80
2022-09-03T00:15:06.519Z,20.30
2022-09-03T00:17:55.474Z,20.10
2022-09-03T00:20:32.003Z,20.10
2022-09-03T00:23:06.720Z,19.80
2022-09-03T00:25:36.661Z,19.90
2022-09-03T00:28:09.771Z,19.80
2022-09-03T00:30:45.156Z,19.90
2022-09-03T00:33:22.309Z,20.00
2022-09-03T00:36:12.796Z,20.30
2022-09-03T00:38:40.938Z,20.50
2022-09-03T00:41:33.673Z,20.50
2022-09-03T00:44:09.117Z,20.50
2022-09-03T00:47:11.107Z,20.70
2022-09-03T00:49:57.757Z,20.50
2022-09-03T00:52:50.459Z,20.60
2022-09-03T00:55:51.649Z,20.50
2022-09-03T00:58:25.475Z,20.60
2022-09-03T01:00:55.540Z,20.80
2022-09-03T01:03:39.010Z,20.90
2022-09-03T01:06:32.357Z,21.00
2022-09-03T01:09:25.959Z,21.00
2022-09-03T01:12:03.897Z,21.20
2022-09-03T01:15:03.359Z,21.20
2022-09-03T01:17:42.788Z,21.30
2022-09-03T01:20:10.475Z,21.40
2022-09-03T01:22:59.715Z,21.40
2022-09-03T01:25:39.386Z,21.40
2022-09-03T01:28:19.211Z,21.40
2022-09-03T01:30:58.949Z,21.30
2022-09-03T01:33:38.336Z,21.10
2022-09-03T01:36:29.711Z,21.00
2022-09-03T01:39:04.662Z,20.90
2022-09-03T01:42:05.214Z,20.80
2022-09-03T01:44:45.882Z,20.70
2022-09-03T01:47:21.034Z,20.60
2022-09-03T01:50:25.104Z,20.70
2022-09-03T01:53:05.653Z,20.80
2022-09-03T01:55:42.793Z,20.90
2022-09-03T01:58:50.389Z,21.10
2022-09-03T02:01:26.440Z,21.20
2022-09-03T02:04:00.203Z,21.30
2022-09-03T02:06:31.629Z,21.20
2022-09-03T02:08:59.350Z,21.30
2022-09-03T02:11:29.493Z,21.30
2022-09-03T02:14:04.903Z,21.40
2022-09-03T02:16:35.129Z,21.50
2022-09-03T02:19:10.933Z,21.40
2022-09-03T02:21:50.645Z,21.40
2022-09-03T02:24:23.916Z,21.40
2022-09-03T02:26:53.617Z,21.40
2022-09-03T02:29:21.782Z,21.50
2022-09-03T02:31:53.761Z,21.50
2022-09-03T02:34:21.038Z,21.40
2022-09-03T02:36:48.415Z,21.40
2022-09-03T02:39:17.019Z,21.40
2022-09-03T02:41:46.518Z,21.30
2022-09-03T02:44:25.915Z,21.30
2022-09-03T02:47:05.151Z,21.30
2022-09-03T02:49:38.167Z,21.20
2022-09-03T02:52:12.275Z,21.30
2022-09-03T02:54:45.087Z,21.40
2022-09-03T02:57:15.659Z,21.40
2022-09-03T02:59:47.389Z,21.40
2022-09-03T03:02:14.779Z,21.40
2022-09-03T03:04:42.333Z,21.40
2022-09-03T03:07:12.658Z,21.50
2022-09-03T03:09:42.100Z,21.50
2022-09-03T03:12:10.375Z,21.50
2022-09-03T03:14:37.608Z,21.50
2022-09-03T03:17:06.037Z,21.50
2022-09-03T03:19:33.421Z,21.40
2022-09-03T03:22:00.855Z,21.40
2022-09-03T03:24:30.463Z,21.40
2022-09-03T03:26:58.280Z,21.30
2022-09-03T03:29:28.419Z,21.30
2022-09-03T03:31:58.098Z,21.30
2022-09-03T03:34:30.828Z,21.30
2022-09-03T03:36:58.316Z,21.20
2022-09-03T03:39:28.438Z,21.20
2022-09-03T03:41:56.414Z,21.20
2022-09-03T03:44:29.757Z,21.30
2022-09-03T03:46:57.065Z,21.30
2022-09-03T03:49:27.740Z,21.20
2022-09-03T03:51:57.474Z,21.30
2022-09-03T03:54:24.749Z,21.20
2022-09-03T03:56:55.982Z,21.20
2022-09-03T03:59:23.812Z,21.20
2022-09-03T04:01:51.389Z,21.20
2022-09-03T04:04:21.929Z,21.20
2022-09-03T04:06:49.576Z,21.10
2022-09-03T04:09:17.215Z,21.10
2022-09-03T04:11:44.916Z,21.10
2022-09-03T04:14:12.133Z,21.00
2022-09-03T04:16:41.975Z,21.00
2022-09-03T04:19:11.678Z,21.00
2022-09-03T04:21:39.473Z,20.90
2022-09-03T04:24:06.824Z,20.80
2022-09-03T04:26:37.216Z,20.80
2022-09-03T04:29:09.434Z,20.90
2022-09-03T04:31:59.984Z,20.80
2022-09-03T04:34:28.042Z,20.90
2022-09-03T04:36:57.988Z,20.90
2022-09-03T04:39:28.100Z,20.80
2022-09-03T04:41:55.385Z,20.80
2022-09-03T04:44:24.889Z,20.90
2022-09-03T04:46:55.024Z,20.80
2022-09-03T04:49:22.692Z,20.60
2022-09-03T04:51:52.420Z,20.50
2022-09-03T04:54:19.746Z,20.60
2022-09-03T04:56:46.975Z,20.60
2022-09-03T04:59:14.191Z,20.60
2022-09-03T05:01:42.995Z,20.60
2022-09-03T05:04:10.301Z,20.70
2022-09-03T05:06:38.351Z,20.70
2022-09-03T05:09:06.377Z,20.70
2022-09-03T05:11:33.815Z,20.60
2022-09-03T05:14:01.204Z,20.10
2022-09-03T05:16:30.864Z,19.80
2022-09-03T05:18:59.875Z,20.00
2022-09-03T05:21:28.620Z,20.20
2022-09-03T05:23:56.966Z,20.20
2022-09-03T05:26:26.676Z,20.10
2022-09-03T05:28:56.686Z,20.30
2022-09-03T05:31:26.749Z,20.40
2022-09-03T05:33:59.632Z,20.50
2022-09-03T05:36:29.385Z,20.50
2022-09-03T05:38:58.816Z,20.60
2022-09-03T05:41:29.781Z,20.70
2022-09-03T05:43:59.354Z,20.30
2022-09-03T05:46:32.744Z,20.10
2022-09-03T05:49:02.121Z,20.10
2022-09-03T05:51:30.746Z,20.10
2022-09-03T05:53:58.734Z,20.20
2022-09-03T05:56:28.876Z,20.40
2022-09-03T05:59:01.962Z,20.40
2022-09-03T06:01:37.396Z,20.30
2022-09-03T06:04:09.433Z,20.20
2022-09-03T06:06:39.341Z,20.10
2022-09-03T06:09:19.057Z,19.80
2022-09-03T06:11:52.755Z,19.90
2022-09-03T06:14:23.719Z,19.90
2022-09-03T06:16:52.812Z,19.90
2022-09-03T06:19:20.604Z,19.90
2022-09-03T06:21:48.270Z,20.00
2022-09-03T06:24:26.353Z,19.80
2022-09-03T06:26:56.499Z,20.00
2022-09-03T06:29:23.823Z,20.30
2022-09-03T06:31:51.319Z,20.50
2022-09-03T06:34:18.889Z,20.70
2022-09-03T06:36:46.734Z,20.70
2022-09-03T06:39:16.332Z,20.70
2022-09-03T06:41:43.842Z,21.00
2022-09-03T06:44:12.454Z,21.00
2022-09-03T06:46:43.484Z,20.90
2022-09-03T06:49:14.301Z,21.00
2022-09-03T06:51:43.302Z,21.30
2022-09-03T06:54:13.253Z,21.60
2022-09-03T06:56:43.623Z,21.50
2022-09-03T06:59:15.610Z,21.30
2022-09-03T07:01:45.361Z,21.60
2022-09-03T07:04:16.674Z,22.10
2022-09-03T07:06:48.318Z,22.80
2022-09-03T07:09:18.242Z,23.50
2022-09-03T07:11:49.365Z,23.90
2022-09-03T07:14:20.855Z,24.10
2022-09-03T07:16:51.936Z,24.30
2022-09-03T07:19:19.669Z,24.50
2022-09-03T07:21:50.544Z,24.40
2022-09-03T07:24:20.220Z,24.20
2022-09-03T07:26:49.167Z,24.00
2022-09-03T07:29:20.678Z,24.00
2022-09-03T07:31:52.603Z,23.70
2022-09-03T07:34:24.138Z,23.50
2022-09-03T07:36:53.870Z,23.50
2022-09-03T07:39:21.785Z,23.30
2022-09-03T07:41:50.238Z,23.30
2022-09-03T07:44:20.692Z,23.50
2022-09-03T07:46:51.466Z,23.50
2022-09-03T07:49:21.110Z,23.50
2022-09-03T07:51:50.819Z,23.50
2022-09-03T07:54:18.260Z,23.60
2022-09-03T07:56:46.026Z,23.80
2022-09-03T07:59:13.592Z,23.80
2022-09-03T08:01:41.752Z,23.80
2022-09-03T08:04:11.861Z,23.80
2022-09-03T08:06:40.443Z,24.00
2022-09-03T08:09:11.396Z,24.10
2022-09-03T08:11:41.516Z,24.30
2022-09-03T08:14:13.006Z,24.40
2022-09-03T08:16:42.874Z,24.60
2022-09-03T08:19:13.247Z,25.00
2022-09-03T08:21:42.260Z,25.10
2022-09-03T08:24:15.050Z,25.70
2022-09-03T08:26:50.596Z,25.90
2022-09-03T08:29:20.818Z,26.40
2022-09-03T08:31:48.826Z,27.10
2022-09-03T08:34:17.683Z,27.90
2022-09-03T08:36:47.142Z,28.30
2022-09-03T08:39:14.655Z,28.60
2022-09-03T08:41:51.138Z,28.50
2022-09-03T08:44:32.486Z,29.40
2022-09-03T08:47:10.645Z,30.60
2022-09-03T08:49:59.539Z,31.20
2022-09-03T08:52:48.983Z,32.20
2022-09-03T08:55:50.596Z,32.60
2022-09-03T08:58:22.639Z,33.00
2022-09-03T09:01:01.358Z,33.20
2022-09-03T09:04:30.066Z,33.30
2022-09-03T09:07:08.837Z,33.80
2022-09-03T09:09:49.941Z,33.70
2022-09-03T09:12:42.762Z,34.20
2022-09-03T09:15:35.131Z,33.90
2022-09-03T09:18:34.162Z,33.00
2022-09-03T09:21:23.345Z,33.10
2022-09-03T09:23:54.158Z,33.40
2022-09-03T09:26:24.190Z,33.70
2022-09-03T09:29:04.467Z,33.30
2022-09-03T09:31:32.202Z,33.70
2022-09-03T09:34:07.048Z,34.20
2022-09-03T09:36:56.881Z,35.40
2022-09-03T09:39:24.259Z,35.80
2022-09-03T09:42:05.398Z,36.20
2022-09-03T09:44:35.310Z,35.90
2022-09-03T09:47:13.847Z,36.00
2022-09-03T09:49:53.928Z,35.60
2022-09-03T09:52:25.900Z,35.80
2022-09-03T09:55:07.104Z,35.40
2022-09-03T09:57:35.233Z,34.80
2022-09-03T10:00:10.991Z,34.00
2022-09-03T10:02:42.352Z,34.40
2022-09-03T10:05:24.218Z,35.00
2022-09-03T10:08:00.240Z,35.90
2022-09-03T10:10:35.481Z,36.20
2022-09-03T10:13:13.629Z,35.90
2022-09-03T10:15:51.114Z,35.60
2022-09-03T10:18:44.321Z,35.90
2022-09-03T10:21:20.714Z,35.70
2022-09-03T10:24:15.355Z,35.40
2022-09-03T10:26:45.931Z,34.90
2022-09-03T10:29:19.660Z,34.40
2022-09-03T10:32:25.552Z,34.00
2022-09-03T10:35:31.307Z,33.50
2022-09-03T10:38:20.634Z,33.50
2022-09-03T10:40:54.019Z,33.10
2022-09-03T10:43:35.606Z,32.80
2022-09-03T10:46:19.539Z,32.90
2022-09-03T10:49:02.714Z,33.30
2022-09-03T10:51:38.663Z,33.60
2022-09-03T10:54:27.622Z,34.20
2022-09-03T10:57:16.594Z,33.90
2022-09-03T11:00:13.254Z,33.60
2022-09-03T11:03:20.906Z,34.00
2022-09-03T11:06:37.432Z,34.80
2022-09-03T11:09:18.124Z,35.40
2022-09-03T11:12:03.833Z,35.90
2022-09-03T11:14:54.403Z,36.20
2022-09-03T11:17:29.245Z,36.30
2022-09-03T11:20:20.728Z,36.60
2022-09-03T11:22:51.716Z,36.60
2022-09-03T11:25:25.974Z,36.40
2022-09-03T11:28:03.190Z,36.40
2022-09-03T11:30:57.372Z,35.90
2022-09-03T11:33:29.441Z,35.70
2022-09-03T11:36:00.769Z,36.20
2022-09-03T11:38:32.010Z,36.50
2022-09-03T11:41:02.400Z,36.00
2022-09-03T11:43:35.820Z,35.30
2022-09-03T11:46:25.921Z,34.50
2022-09-03T11:49:25.207Z,34.30
2022-09-03T11:52:00.901Z,33.70
2022-09-03T11:54:31.969Z,33.20
2022-09-03T11:57:27.197Z,32.80
2022-09-03T11:59:55.336Z,33.00
2022-09-03T12:02:33.670Z,33.50
2022-09-03T12:05:12.626Z,34.10
2022-09-03T12:08:11.025Z,34.90
2022-09-03T12:10:44.793Z,35.30
2022-09-03T12:13:37.407Z,35.70
2022-09-03T12:16:44.609Z,35.80
2022-09-03T12:19:38.165Z,35.80
2022-09-03T12:22:05.547Z,35.70
2022-09-03T12:24:37.889Z,35.60
2022-09-03T12:27:06.630Z,36.10
2022-09-03T12:29:36.166Z,36.50
2022-09-03T12:32:08.894Z,35.90
2022-09-03T12:34:36.192Z,35.00
2022-09-03T12:37:03.990Z,34.80
2022-09-03T12:42:28.401Z,35.00
2022-09-03T12:44:55.917Z,34.90
2022-09-03T12:47:34.158Z,34.90
2022-09-03T12:50:17.063Z,34.80
2022-09-03T12:53:02.535Z,34.60
2022-09-03T12:55:41.622Z,34.40
2022-09-03T12:58:15.252Z,34.20
2022-09-03T13:00:54.155Z,33.70
2022-09-03T13:03:29.403Z,33.60
2022-09-03T13:06:08.553Z,33.50
2022-09-03T13:08:50.391Z,33.60
2022-09-03T13:11:22.610Z,33.70
2022-09-03T13:13:55.405Z,33.70
2022-09-03T13:16:35.524Z,33.40
2022-09-03T13:19:23.115Z,33.20
2022-09-03T13:22:05.220Z,33.00
2022-09-03T13:25:12.625Z,32.80
2022-09-03T13:27:45.520Z,32.60
2022-09-03T13:30:20.101Z,32.50
2022-09-03T13:33:04.949Z,32.30
2022-09-03T13:36:11.706Z,32.30
2022-09-03T13:38:47.633Z,32.10
2022-09-03T13:41:20.186Z,32.30
2022-09-03T13:44:05.654Z,32.40
2022-09-03T13:47:14.622Z,32.50
2022-09-03T13:50:12.562Z,32.70
2022-09-03T13:53:18.117Z,32.40
2022-09-03T13:55:57.676Z,31.90
2022-09-03T13:58:48.751Z,32.10
2022-09-03T14:01:26.829Z,32.40
2022-09-03T14:04:03.222Z,32.50
2022-09-03T14:06:54.628Z,32.40
2022-09-03T14:09:39.135Z,32.20
2022-09-03T14:12:17.617Z,32.20
2022-09-03T14:14:56.874Z,32.20
2022-09-03T14:17:44.787Z,32.10
2022-09-03T14:20:25.631Z,31.90
2022-09-03T14:23:24.999Z,32.10
2022-09-03T14:25:57.165Z,32.20
2022-09-03T14:28:33.735Z,32.10
2022-09-03T14:31:18.937Z,32.20
2022-09-03T14:34:08.662Z,32.30
2022-09-03T14:36:39.019Z,32.40
2022-09-03T14:39:27.734Z,32.20
2022-09-03T14:42:07.101Z,32.10
2022-09-03T14:44:53.191Z,31.90
2022-09-03T14:47:49.098Z,31.50
2022-09-03T14:50:22.413Z,31.30
2022-09-03T14:53:15.672Z,31.00
2022-09-03T14:56:39.760Z,30.80
2022-09-03T14:59:25.563Z,30.80
2022-09-03T15:02:10.605Z,30.70
2022-09-03T15:04:52.871Z,30.60
2022-09-03T15:07:42.330Z,30.40
2022-09-03T15:10:37.722Z,30.20
2022-09-03T15:13:22.788Z,30.20
2022-09-03T15:16:11.402Z,30.00
2022-09-03T15:19:01.824Z,29.80
2022-09-03T15:21:41.512Z,29.90
2022-09-03T15:24:14.214Z,30.00
2022-09-03T15:27:21.061Z,29.90
2022-09-03T15:30:19.172Z,29.70
2022-09-03T15:33:30.553Z,29.50
2022-09-03T15:36:31.054Z,29.40
2022-09-03T15:39:08.945Z,28.50
2022-09-03T15:41:45.281Z,27.90
2022-09-03T15:44:19.722Z,28.00
2022-09-03T15:47:05.261Z,28.00
2022-09-03T15:50:01.204Z,28.10
2022-09-03T15:52:59.744Z,28.20
2022-09-03T15:55:39.177Z,28.10
2022-09-03T15:58:35.645Z,28.20
2022-09-03T16:01:42.060Z,28.10
2022-09-03T16:04:20.866Z,28.00
2022-09-03T16:07:03.668Z,28.00
2022-09-03T16:10:22.625Z,28.00
2022-09-03T16:13:04.600Z,27.90
2022-09-03T16:15:48.428Z,28.00
2022-09-03T16:18:25.258Z,27.90
2022-09-03T16:21:01.333Z,27.90
2022-09-03T16:23:53.003Z,27.90
2022-09-03T16:26:37.627Z,27.80
2022-09-03T16:29:12.085Z,27.80
2022-09-03T16:32:18.122Z,27.70
2022-09-03T16:35:12.194Z,27.70
2022-09-03T16:37:42.574Z,27.70
2022-09-03T16:40:26.576Z,27.70
2022-09-03T16:43:18.036Z,27.60
2022-09-03T16:46:26.027Z,27.50
2022-09-03T16:49:26.805Z,27.40
2022-09-03T16:52:02.727Z,26.70
2022-09-03T16:55:03.669Z,26.20
2022-09-03T16:58:09.804Z,25.90
2022-09-03T17:00:53.826Z,25.60
2022-09-03T17:03:30.309Z,25.50
2022-09-03T17:06:43.560Z,25.40
2022-09-03T17:09:36.166Z,25.20
2022-09-03T17:12:31.498Z,25.20
2022-09-03T17:15:07.760Z,25.00
2022-09-03T17:17:54.120Z,24.80
2022-09-03T17:20:50.826Z,24.80
2022-09-03T17:23:29.274Z,24.50
2022-09-03T17:26:22.891Z,24.40
2022-09-03T17:29:15.723Z,24.30
2022-09-03T17:32:12.010Z,24.10
2022-09-03T17:35:00.867Z,24.20
2022-09-03T17:37:56.612Z,24.50
2022-09-03T17:40:35.617Z,24.70
2022-09-03T17:43:23.902Z,24.60
2022-09-03T17:46:08.227Z,24.70
2022-09-03T17:48:55.312Z,25.00
2022-09-03T17:51:41.319Z,25.10
2022-09-03T17:54:19.222Z,25.20
2022-09-03T17:57:13.151Z,25.30
2022-09-03T17:59:49.246Z,25.20
2022-09-03T18:02:38.711Z,25.30
2022-09-03T18:05:31.147Z,25.30
2022-09-03T18:08:13.260Z,25.30
2022-09-03T18:10:49.037Z,25.20
2022-09-03T18:13:57.961Z,25.30
2022-09-03T18:16:32.168Z,25.30
2022-09-03T18:19:09.217Z,25.30
2022-09-03T18:21:57.496Z,25.10
2022-09-03T18:25:01.933Z,25.10
2022-09-03T18:28:12.410Z,25.10
2022-09-03T18:30:58.521Z,25.00
2022-09-03T18:33:44.801Z,25.00
2022-09-03T18:36:32.086Z,25.00
2022-09-03T18:39:45.775Z,24.80
2022-09-03T18:43:13.465Z,24.80
2022-09-03T18:49:57.834Z,24.80
2022-09-03T18:53:11.394Z,24.80
2022-09-03T18:56:16.113Z,24.70
2022-09-03T18:59:19.333Z,24.80
2022-09-03T19:02:05.203Z,24.70
2022-09-03T19:04:54.410Z,24.70
2022-09-03T19:07:59.952Z,24.60
2022-09-03T19:11:14.361Z,24.50
2022-09-03T19:14:04.757Z,24.40
2022-09-03T19:17:31.488Z,24.40
2022-09-03T19:20:33.672Z,24.40
2022-09-03T19:23:22.543Z,24.30
2022-09-03T19:26:11.290Z,24.10
2022-09-03T19:29:03.576Z,24.10
2022-09-03T19:32:15.553Z,23.90
2022-09-03T19:35:23.818Z,23.80
2022-09-03T19:38:32.553Z,23.90
2022-09-03T19:41:35.846Z,23.90
2022-09-03T19:44:45.068Z,24.00
2022-09-03T19:47:42.677Z,23.90
2022-09-03T19:50:42.904Z,23.90
2022-09-03T19:53:35.915Z,23.90
2022-09-03T19:56:28.012Z,23.80
2022-09-03T19:59:17.075Z,23.60
2022-09-03T20:02:04.400Z,23.20
2022-09-03T20:05:05.208Z,23.00
2022-09-03T20:07:54.034Z,23.00
2022-09-03T20:10:25.424Z,22.90
2022-09-03T20:13:17.350Z,22.50
2022-09-03T20:16:16.950Z,22.40
2022-09-03T20:19:22.048Z,22.50
2022-09-03T20:21:50.573Z,22.50
2022-09-03T20:24:34.584Z,22.60
2022-09-03T20:27:23.299Z,22.70
2022-09-03T20:30:10.405Z,22.80
2022-09-03T20:32:46.454Z,22.80
2022-09-03T20:35:16.079Z,22.80
2022-09-03T20:38:08.411Z,22.80
2022-09-03T20:40:53.754Z,22.80
2022-09-03T20:43:39.072Z,22.80
2022-09-03T20:46:38.646Z,22.80
2022-09-03T20:49:31.851Z,22.70
2022-09-03T20:52:09.896Z,22.70
2022-09-03T20:54:47.264Z,22.70
2022-09-03T20:57:53.118Z,22.70
2022-09-03T21:00:26.486Z,22.70
2022-09-03T21:03:14.253Z,22.70
2022-09-03T21:05:41.509Z,22.60
2022-09-03T21:08:25.380Z,22.60
2022-09-03T21:11:07.909Z,22.50
2022-09-03T21:13:57.370Z,22.50
2022-09-03T21:16:57.391Z,22.50
2022-09-03T21:19:38.534Z,22.50
2022-09-03T21:22:33.770Z,22.40
2022-09-03T21:25:27.948Z,22.40
2022-09-03T21:28:04.551Z,22.40
2022-09-03T21:30:37.828Z,22.40
2022-09-03T21:33:12.940Z,22.40
2022-09-03T21:35:47.076Z,22.40
2022-09-03T21:38:33.709Z,22.40
2022-09-03T21:41:23.719Z,22.30
2022-09-03T21:44:03.871Z,22.20
2022-09-03T21:46:54.234Z,22.20
2022-09-03T21:49:33.796Z,22.00
2022-09-03T21:52:34.144Z,22.00
2022-09-03T21:55:03.543Z,22.10
2022-09-03T21:58:09.429Z,22.00
2022-09-03T22:00:39.837Z,22.00
2022-09-03T22:03:13.400Z,22.10
2022-09-03T22:06:25.763Z,22.10
2022-09-03T22:09:07.991Z,22.00
2022-09-03T22:12:03.391Z,22.00
2022-09-03T22:14:43.390Z,22.00
2022-09-03T22:17:16.808Z,22.00
2022-09-03T22:19:44.302Z,21.90
2022-09-03T22:22:26.602Z,21.90
2022-09-03T22:25:09.015Z,21.90
2022-09-03T22:27:49.356Z,21.80
2022-09-03T22:30:21.400Z,21.80
2022-09-03T22:33:22.074Z,21.70
2022-09-03T22:35:59.249Z,21.70
2022-09-03T22:38:54.570Z,21.60
2022-09-03T22:41:31.251Z,21.50
2022-09-03T22:44:25.278Z,21.50
2022-09-03T22:46:59.687Z,21.50
2022-09-03T22:49:41.519Z,21.50
2022-09-03T22:52:33.634Z,21.50
2022-09-03T22:55:13.528Z,21.50
2022-09-03T22:57:55.879Z,21.50
2022-09-03T23:00:24.053Z,21.40
2022-09-03T23:03:01.988Z,21.40
2022-09-03T23:05:58.019Z,21.40
2022-09-03T23:08:34.249Z,21.30
2022-09-03T23:11:25.811Z,21.20
2022-09-03T23:14:09.687Z,21.20
2022-09-03T23:16:52.595Z,21.20
2022-09-03T23:19:33.393Z,21.20
2022-09-03T23:22:15.539Z,21.10
2022-09-03T23:24:52.217Z,21.20
2022-09-03T23:27:25.413Z,21.10
2022-09-03T23:29:59.362Z,21.10
2022-09-03T23:32:33.348Z,21.10
2022-09-03T23:35:07.517Z,21.00
2022-09-03T23:38:05.224Z,21.00
2022-09-03T23:40:49.840Z,21.00
2022-09-03T23:43:43.963Z,21.00
2022-09-03T23:47:02.569Z,21.00
2022-09-03T23:49:44.027Z,20.90
2022-09-03T23:52:34.926Z,21.00
2022-09-03T23:55:34.241Z,20.90
2022-09-03T23:58:19.899Z,20.90
